Terminal Aerodrome Forecast
Issued by NWS

Home | Current Version | Previous Version | Text Only | Print | Product List | Glossary On
Versions: 1 2 3 4 5 6 7 8 9 10 11 12 13 14 15 16 17 18
000
FTUS44 KBMX 301140
TAFMGM
TAF
KMGM 301140Z 3012/3112 00000KT P6SM BKN012 OVC100
     FM301600 VRB04KT P6SM BKN025 OVC050
     FM302000 34005KT P6SM OVC050
     FM310200 00000KT P6SM BKN100
      TEMPO 3108/3112 4SM BR OVC015=

USA.gov is the U.S. government's official web portal to all federal, state and local government web resources and services.